Time;durP1;ratioP1;P1;durP2;ratioP2;P2;SDS_P1;SDS_P2;PMS_P1;PMS_P2;Temp;Humidity;BMP_temperature;BMP_pressure;BME280_temperature;BME280_humidity;BME280_pressure;Samples;Min_cycle;Max_cycle;Signal;HPM_P1;HPM_P2
2023/05/23 00:00:50;;;;;;;;;;;;;;;12.60;76.38;99578.25;4893607;29;20276;-84
2023/05/23 00:03:21;;;;;;;;;;;;;;;12.56;76.67;99580.63;4894728;29;20510;-82
2023/05/23 00:05:50;;;;;;;;;;;;;;;12.53;76.94;99583.78;4894633;29;19936;-82
2023/05/23 00:08:16;;;;;;;;;;;;;;;12.50;77.26;99584.28;4894819;29;19927;-82
2023/05/23 00:10:44;;;;;;;;;;;;;;;12.49;77.14;99585.38;4894828;29;19953;-83
2023/05/23 00:13:13;;;;;;;;;;;;;;;12.42;77.12;99577.38;4894599;29;19927;-83
2023/05/23 00:15:41;;;;;;;;;;;;;;;12.43;77.00;99581.75;4895008;29;19935;-83
2023/05/23 00:18:11;;;;;;;;;;;;;;;12.44;76.92;99588.78;4895246;29;20785;-84
2023/05/23 00:20:41;;;;;;;;;;;;;;;12.39;77.01;99579.75;4900486;29;19934;-83
2023/05/23 00:23:09;;;;;;;;;;;;;;;12.35;77.29;99591.06;4895155;29;20034;-82
2023/05/23 00:25:36;;;;;;;;;;;;;;;12.33;77.20;99584.25;4894597;29;19927;-83
2023/05/23 00:28:03;;;;;;;;;;;;;;;12.35;77.06;99588.34;4894237;29;20331;-82
2023/05/23 00:30:31;;;;;;;;;;;;;;;12.38;76.88;99588.94;4894581;29;19931;-82
2023/05/23 00:32:59;;;;;;;;;;;;;;;12.36;76.89;99587.31;4894575;29;19983;-82
2023/05/23 00:35:26;;;;;;;;;;;;;;;12.35;76.81;99592.94;4898079;29;19935;-82
2023/05/23 00:37:54;;;;;;;;;;;;;;;12.33;76.73;99586.94;4897734;29;20053;-81
2023/05/23 00:40:21;;;;;;;;;;;;;;;12.29;76.66;99580.38;4896864;29;20076;-81
2023/05/23 00:42:48;;;;;;;;;;;;;;;12.28;76.66;99584.13;4897832;29;19927;-82
2023/05/23 00:45:15;;;;;;;;;;;;;;;12.26;76.62;99584.41;4897953;29;19962;-81
2023/05/23 00:47:42;;;;;;;;;;;;;;;12.29;76.21;99578.50;4897923;29;19934;-82
2023/05/23 00:50:15;;;;;;;;;;;;;;;12.30;76.05;99577.41;4896361;29;19962;-81
2023/05/23 00:52:43;;;;;;;;;;;;;;;12.32;75.76;99575.31;4897376;29;19994;-82
2023/05/23 00:55:11;;;;;;;;;;;;;;;12.34;75.62;99577.78;4898229;29;19928;-81
2023/05/23 00:57:43;;;;;;;;;;;;;;;12.35;75.49;99574.00;4913117;29;19927;-82
2023/05/23 01:00:11;;;;;;;;;;;;;;;12.38;75.38;99578.91;4911846;29;20279;-81
2023/05/23 01:02:40;;;;;;;;;;;;;;;12.39;75.18;99569.75;4912630;29;19927;-81
2023/05/23 01:05:07;;;;;;;;;;;;;;;12.33;75.19;99563.44;4898601;29;19979;-81
2023/05/23 01:07:34;;;;;;;;;;;;;;;12.31;75.48;99570.16;4881494;29;19931;-82
2023/05/23 01:10:02;;;;;;;;;;;;;;;12.33;75.31;99565.28;4897745;29;20306;-81
2023/05/23 01:12:38;;;;;;;;;;;;;;;12.33;75.19;99574.25;4898008;29;19927;-82
2023/05/23 01:15:07;;;;;;;;;;;;;;;12.36;75.07;99567.53;4896725;29;19934;-81
2023/05/23 01:17:43;;;;;;;;;;;;;;;12.35;75.02;99563.16;4896722;29;19931;-83
2023/05/23 01:20:11;;;;;;;;;;;;;;;12.38;74.95;99568.09;4897741;29;19927;-83
2023/05/23 01:22:47;;;;;;;;;;;;;;;12.39;74.83;99567.03;4897880;29;19931;-83
2023/05/23 01:25:20;;;;;;;;;;;;;;;12.41;74.69;99562.22;4897669;29;19931;-83
2023/05/23 01:27:49;;;;;;;;;;;;;;;12.42;74.48;99568.44;4896613;29;20006;-82
2023/05/23 01:30:17;;;;;;;;;;;;;;;12.41;74.36;99567.63;4897414;29;19934;-83
2023/05/23 01:32:46;;;;;;;;;;;;;;;12.42;74.37;99568.44;4897773;29;20414;-84
2023/05/23 01:35:13;;;;;;;;;;;;;;;12.42;74.36;99569.25;4862554;29;20012;-82
2023/05/23 01:37:40;;;;;;;;;;;;;;;12.44;74.02;99569.84;4877707;29;19927;-82
2023/05/23 01:40:08;;;;;;;;;;;;;;;12.44;73.93;99567.13;4878639;29;20413;-83
2023/05/23 01:42:35;;;;;;;;;;;;;;;12.50;73.50;99571.56;4878889;29;19960;-82
2023/05/23 01:45:02;;;;;;;;;;;;;;;12.56;73.19;99564.38;4876667;29;20075;-82
2023/05/23 01:47:30;;;;;;;;;;;;;;;12.61;72.83;99559.06;4891393;29;20018;-83
2023/05/23 01:49:57;;;;;;;;;;;;;;;12.65;72.52;99559.38;4911395;29;19935;-82
2023/05/23 01:52:24;;;;;;;;;;;;;;;12.67;72.29;99551.84;4897547;29;19927;-82
2023/05/23 01:54:52;;;;;;;;;;;;;;;12.69;72.07;99560.53;4910764;29;19927;-83
2023/05/23 01:57:19;;;;;;;;;;;;;;;12.73;71.96;99564.38;4896193;29;19927;-82
2023/05/23 01:59:46;;;;;;;;;;;;;;;12.73;71.79;99559.78;4896053;29;19935;-84
2023/05/23 02:02:14;;;;;;;;;;;;;;;12.73;71.80;99557.06;4911752;29;20025;-83
2023/05/23 02:04:41;;;;;;;;;;;;;;;12.74;71.95;99552.50;4880575;29;20298;-82
2023/05/23 02:07:07;;;;;;;;;;;;;;;12.77;71.61;99550.13;4896845;29;19931;-82
2023/05/23 02:09:34;;;;;;;;;;;;;;;12.79;71.59;99555.28;4896582;29;20415;-84
2023/05/23 02:12:01;;;;;;;;;;;;;;;12.79;71.45;99556.13;4894908;29;19931;-82
2023/05/23 02:14:28;;;;;;;;;;;;;;;12.84;71.29;99562.66;4896412;29;19970;-80
2023/05/23 02:16:55;;;;;;;;;;;;;;;12.86;70.96;99547.00;4896571;29;19931;-81
2023/05/23 02:19:22;;;;;;;;;;;;;;;12.90;70.68;99554.38;4894904;29;19934;-83
2023/05/23 02:21:49;;;;;;;;;;;;;;;12.92;70.13;99546.84;4894797;29;19935;-83
2023/05/23 02:24:17;;;;;;;;;;;;;;;12.95;69.90;99549.03;4894593;29;19934;-82
2023/05/23 02:26:44;;;;;;;;;;;;;;;12.97;69.68;99548.81;4879285;29;19928;-83
2023/05/23 02:29:10;;;;;;;;;;;;;;;12.95;69.79;99550.94;4894381;29;20337;-82
2023/05/23 02:31:37;;;;;;;;;;;;;;;12.91;69.84;99557.91;4910477;29;19928;-83
2023/05/23 02:34:04;;;;;;;;;;;;;;;12.91;69.66;99556.03;4894298;29;19946;-83
2023/05/23 02:36:32;;;;;;;;;;;;;;;12.88;69.75;99551.09;4879352;29;19943;-82
2023/05/23 02:38:59;;;;;;;;;;;;;;;12.87;69.79;99549.47;4878672;29;19934;-81
2023/05/23 02:41:26;;;;;;;;;;;;;;;12.85;69.86;99546.19;4910504;29;19927;-82
2023/05/23 02:43:53;;;;;;;;;;;;;;;12.84;69.76;99549.97;4909967;29;20383;-82
2023/05/23 02:46:20;;;;;;;;;;;;;;;12.85;69.76;99554.31;4894578;29;20021;-82
2023/05/23 02:48:47;;;;;;;;;;;;;;;12.85;69.86;99556.19;4894444;29;19931;-83
2023/05/23 02:51:14;;;;;;;;;;;;;;;12.83;69.86;99551.00;4895935;29;20438;-81
2023/05/23 02:53:41;;;;;;;;;;;;;;;12.82;70.02;99552.09;4894481;29;19935;-82
2023/05/23 02:56:08;;;;;;;;;;;;;;;12.85;69.94;99562.44;4895143;29;20030;-82
2023/05/23 02:58:35;;;;;;;;;;;;;;;12.89;70.01;99565.47;4895464;29;19935;-82
2023/05/23 03:01:02;;;;;;;;;;;;;;;12.94;69.85;99560.16;4894349;29;19934;-82
2023/05/23 03:03:32;;;;;;;;;;;;;;;12.99;69.77;99569.16;4895044;29;19931;-82
2023/05/23 03:06:02;;;;;;;;;;;;;;;13.09;69.41;99576.66;4909503;29;19927;-83
2023/05/23 03:08:28;;;;;;;;;;;;;;;13.17;68.73;99570.00;4893994;29;19928;-83
2023/05/23 03:10:55;;;;;;;;;;;;;;;13.24;68.23;99570.63;4895304;29;19927;-82
2023/05/23 03:13:22;;;;;;;;;;;;;;;13.29;67.71;99569.91;4895603;29;19934;-82
2023/05/23 03:15:49;;;;;;;;;;;;;;;13.36;66.82;99573.25;4896396;29;19978;-82
2023/05/23 03:18:16;;;;;;;;;;;;;;;13.50;65.86;99561.00;4901335;29;19982;-83
2023/05/23 03:20:43;;;;;;;;;;;;;;;13.62;64.78;99561.72;4901191;29;19933;-83
2023/05/23 03:23:09;;;;;;;;;;;;;;;13.79;63.73;99552.69;4893424;29;19927;-81
2023/05/23 03:25:36;;;;;;;;;;;;;;;13.92;63.20;99556.91;4893745;29;19928;-82
2023/05/23 03:28:03;;;;;;;;;;;;;;;14.02;62.57;99549.72;4893526;29;19928;-82
2023/05/23 03:30:30;;;;;;;;;;;;;;;14.14;62.23;99541.44;4894973;29;20387;-84
2023/05/23 03:32:57;;;;;;;;;;;;;;;14.26;61.86;99554.88;4893751;29;20025;-83
2023/05/23 03:35:24;;;;;;;;;;;;;;;14.40;61.21;99549.84;4894168;29;20402;-82
2023/05/23 03:37:51;;;;;;;;;;;;;;;14.55;60.64;99541.88;4893549;29;19983;-83
2023/05/23 03:40:18;;;;;;;;;;;;;;;14.72;59.89;99539.06;4895163;29;19934;-82
2023/05/23 03:42:46;;;;;;;;;;;;;;;14.90;59.21;99544.09;4893897;29;19928;-82
2023/05/23 03:45:13;;;;;;;;;;;;;;;15.10;58.65;99553.50;4894395;29;19927;-83
2023/05/23 03:47:41;;;;;;;;;;;;;;;15.24;58.08;99535.63;4893312;29;20048;-82
2023/05/23 03:50:27;;;;;;;;;;;;;;;15.35;57.34;99539.25;4895604;29;20418;-82
2023/05/23 03:52:55;;;;;;;;;;;;;;;15.43;57.35;99533.31;4899675;29;19934;-82
2023/05/23 03:55:24;;;;;;;;;;;;;;;15.50;56.95;99530.34;4895112;29;19934;-82
2023/05/23 03:57:51;;;;;;;;;;;;;;;15.58;56.94;99538.81;4893410;29;19935;-83
2023/05/23 04:00:18;;;;;;;;;;;;;;;15.67;56.94;99532.88;4891321;29;19934;-82
2023/05/23 04:03:07;;;;;;;;;;;;;;;15.72;57.00;99533.75;4895074;29;19927;-81
2023/05/23 04:05:34;;;;;;;;;;;;;;;15.77;56.75;99530.22;4894407;29;19992;-83
2023/05/23 04:08:02;;;;;;;;;;;;;;;15.83;56.52;99542.78;4894403;29;19935;-83
2023/05/23 04:10:30;;;;;;;;;;;;;;;15.86;56.44;99542.25;4913846;29;19928;-84
2023/05/23 04:12:57;;;;;;;;;;;;;;;15.86;55.74;99544.97;4913571;29;19958;-83
2023/05/23 04:15:24;;;;;;;;;;;;;;;15.86;55.89;99539.53;4913523;29;20391;-83
2023/05/23 04:17:57;;;;;;;;;;;;;;;15.81;55.56;99539.50;4897446;29;20050;-84
2023/05/23 04:20:25;;;;;;;;;;;;;;;15.83;55.72;99537.34;4897571;29;19979;-84
2023/05/23 04:22:52;;;;;;;;;;;;;;;15.88;55.65;99542.81;4898545;29;20370;-83
2023/05/23 04:25:38;;;;;;;;;;;;;;;15.90;55.73;99539.78;4897584;29;20026;-84
2023/05/23 04:28:16;;;;;;;;;;;;;;;15.91;55.56;99541.44;4897190;29;20029;-83
2023/05/23 04:30:43;;;;;;;;;;;;;;;15.93;55.76;99545.53;4897552;29;20043;-85
2023/05/23 04:33:12;;;;;;;;;;;;;;;15.93;55.61;99542.81;4882427;29;20049;-84
2023/05/23 04:35:39;;;;;;;;;;;;;;;15.95;55.63;99537.09;4897513;29;19928;-83
2023/05/23 04:38:26;;;;;;;;;;;;;;;16.01;55.76;99536.84;4898752;29;20058;-84
2023/05/23 04:40:54;;;;;;;;;;;;;;;16.10;55.58;99539.06;4881920;29;20395;-84
2023/05/23 04:43:46;;;;;;;;;;;;;;;16.13;55.13;99539.34;4895457;29;19932;-83
2023/05/23 04:46:26;;;;;;;;;;;;;;;16.19;54.94;99537.44;4897301;29;19927;-83
2023/05/23 04:49:05;;;;;;;;;;;;;;;16.20;55.11;99541.81;4883257;29;20034;-84
2023/05/23 04:51:33;;;;;;;;;;;;;;;16.20;55.00;99545.38;4882268;29;19928;-85
2023/05/23 04:54:11;;;;;;;;;;;;;;;16.21;55.20;99535.28;4898366;29;19934;-82
2023/05/23 04:56:38;;;;;;;;;;;;;;;16.28;55.24;99540.47;4882018;29;20021;-84
2023/05/23 04:59:24;;;;;;;;;;;;;;;16.37;54.87;99545.13;4898361;29;20060;-84
2023/05/23 05:01:51;;;;;;;;;;;;;;;16.53;54.60;99550.59;4898134;29;19983;-82
2023/05/23 05:04:19;;;;;;;;;;;;;;;16.63;54.26;99545.97;4893410;29;20031;-83
2023/05/23 05:06:47;;;;;;;;;;;;;;;16.70;53.88;99553.88;4886275;29;20422;-83
2023/05/23 05:09:14;;;;;;;;;;;;;;;16.78;53.59;99539.72;4881141;29;19935;-84
2023/05/23 05:11:42;;;;;;;;;;;;;;;16.85;53.83;99550.38;4896720;29;19953;-84
2023/05/23 05:14:09;;;;;;;;;;;;;;;16.89;53.75;99546.84;4896672;29;19927;-83
2023/05/23 05:16:37;;;;;;;;;;;;;;;16.88;53.76;99545.19;4866009;29;19927;-84
2023/05/23 05:19:04;;;;;;;;;;;;;;;16.89;53.96;99557.75;4896093;29;19935;-83
2023/05/23 05:21:31;;;;;;;;;;;;;;;16.77;54.23;99553.63;4548644;29;10000978;-84
2023/05/23 05:24:01;;;;;;;;;;;;;;;16.77;54.47;99559.88;4868029;29;19939;-83
2023/05/23 05:26:28;;;;;;;;;;;;;;;16.72;54.83;99559.88;4859168;29;19999;-83
2023/05/23 05:28:55;;;;;;;;;;;;;;;16.65;54.78;99557.41;4874407;29;19931;-84
2023/05/23 05:31:26;;;;;;;;;;;;;;;16.74;54.97;99557.72;4892987;29;19934;-84
2023/05/23 05:33:54;;;;;;;;;;;;;;;16.86;55.10;99555.56;4876053;29;20402;-83
2023/05/23 05:36:21;;;;;;;;;;;;;;;16.99;55.06;99556.09;4874464;29;19995;-84
2023/05/23 05:38:49;;;;;;;;;;;;;;;17.11;54.86;99548.44;4876000;29;19974;-84
2023/05/23 05:41:25;;;;;;;;;;;;;;;17.19;54.80;99552.53;4908356;29;20054;-83
2023/05/23 05:43:56;;;;;;;;;;;;;;;17.10;54.33;99555.00;4889328;29;20308;-84
2023/05/23 05:46:23;;;;;;;;;;;;;;;17.08;54.84;99555.25;4908006;29;20025;-83
2023/05/23 05:48:51;;;;;;;;;;;;;;;16.99;54.84;99556.94;4870413;29;20593;-82
2023/05/23 05:51:20;;;;;;;;;;;;;;;16.93;55.23;99546.28;4897999;29;20718;-83
2023/05/23 05:53:50;;;;;;;;;;;;;;;16.84;55.21;99560.47;4878234;29;20403;-84
2023/05/23 05:56:17;;;;;;;;;;;;;;;16.85;55.33;99553.91;4885182;29;20310;-82
2023/05/23 05:58:44;;;;;;;;;;;;;;;16.94;55.26;99554.19;4884016;29;19934;-82
2023/05/23 06:01:14;;;;;;;;;;;;;;;17.10;55.11;99549.56;4873557;29;19935;-83
2023/05/23 06:03:41;;;;;;;;;;;;;;;17.28;55.00;99559.06;4882156;29;19935;-85
2023/05/23 06:06:09;;;;;;;;;;;;;;;17.50;54.64;99561.50;4891657;29;20406;-82
2023/05/23 06:08:37;;;;;;;;;;;;;;;17.71;54.50;99545.88;4883700;29;19975;-84
2023/05/23 06:11:09;;;;;;;;;;;;;;;17.88;54.11;99545.56;4905800;29;19928;-83
2023/05/23 06:13:36;;;;;;;;;;;;;;;17.99;53.80;99541.69;4883985;29;19931;-82
2023/05/23 06:16:03;;;;;;;;;;;;;;;18.03;53.29;99534.56;4892287;29;20383;-83
2023/05/23 06:18:30;;;;;;;;;;;;;;;18.13;53.40;99537.25;4890988;29;19969;-82
2023/05/23 06:20:57;;;;;;;;;;;;;;;18.24;53.48;99539.94;4881735;29;20042;-84
2023/05/23 06:23:24;;;;;;;;;;;;;;;18.28;53.00;99532.78;4884422;29;19990;-84
2023/05/23 06:25:51;;;;;;;;;;;;;;;18.30;52.98;99527.84;4880338;29;20057;-82
2023/05/23 06:28:18;;;;;;;;;;;;;;;18.35;53.08;99514.16;4900097;29;19935;-83
2023/05/23 06:30:45;;;;;;;;;;;;;;;18.59;52.48;99519.75;4911178;29;19970;-82
2023/05/23 06:33:12;;;;;;;;;;;;;;;18.72;52.12;99510.88;4910314;29;20420;-83
2023/05/23 06:35:41;;;;;;;;;;;;;;;18.81;52.11;99505.63;4914352;29;20029;-81
2023/05/23 06:38:07;;;;;;;;;;;;;;;18.79;51.98;99508.69;4901142;29;19931;-81
2023/05/23 06:40:34;;;;;;;;;;;;;;;18.65;52.27;99510.41;4880878;29;19963;-83
2023/05/23 06:43:02;;;;;;;;;;;;;;;18.57;52.28;99508.28;4897184;29;19927;-84
2023/05/23 06:45:52;;;;;;;;;;;;;;;18.53;52.53;99504.47;4882836;29;19935;-84
2023/05/23 06:48:19;;;;;;;;;;;;;;;18.61;52.52;99514.81;4866882;29;20280;-82
2023/05/23 06:50:48;;;;;;;;;;;;;;;18.89;51.93;99510.50;4890419;29;19928;-81
2023/05/23 06:53:15;;;;;;;;;;;;;;;19.37;51.43;99510.59;4887017;29;20022;-84
2023/05/23 06:55:45;;;;;;;;;;;;;;;19.61;50.49;99510.56;4881538;29;19927;-83
2023/05/23 06:58:15;;;;;;;;;;;;;;;19.85;50.45;99507.84;4883459;29;19928;-84
2023/05/23 07:00:42;;;;;;;;;;;;;;;19.94;49.88;99493.50;4887147;29;19928;-83
2023/05/23 07:03:27;;;;;;;;;;;;;;;19.84;49.65;99498.00;4891084;29;20420;-81
2023/05/23 07:05:58;;;;;;;;;;;;;;;19.94;49.29;99493.50;4894535;29;20383;-84
2023/05/23 07:08:25;;;;;;;;;;;;;;;20.17;48.97;99483.59;4886795;29;19928;-82
2023/05/23 07:10:58;;;;;;;;;;;;;;;20.22;48.93;99492.53;4880950;29;19927;-82
2023/05/23 07:13:45;;;;;;;;;;;;;;;20.30;48.54;99485.56;4884152;29;19928;-81
2023/05/23 07:16:20;;;;;;;;;;;;;;;20.10;48.72;99494.91;4901574;29;20395;-83
2023/05/23 07:18:57;;;;;;;;;;;;;;;20.10;49.27;99493.00;4864204;29;19931;-80
2023/05/23 07:21:24;;;;;;;;;;;;;;;20.14;49.05;99485.00;4913490;29;20408;-82
2023/05/23 07:23:51;;;;;;;;;;;;;;;20.07;48.45;99485.34;4913151;29;19973;-82
2023/05/23 07:26:20;;;;;;;;;;;;;;;20.36;48.63;99487.16;4905265;29;20345;-79
2023/05/23 07:28:50;;;;;;;;;;;;;;;20.61;48.15;99488.69;4908130;29;19934;-82
2023/05/23 07:31:17;;;;;;;;;;;;;;;20.71;47.91;99491.28;4909694;29;19931;-83
2023/05/23 07:33:45;;;;;;;;;;;;;;;20.96;48.17;99494.69;4894574;29;19927;-83
2023/05/23 07:36:18;;;;;;;;;;;;;;;21.11;47.79;99499.06;4894157;29;19956;-83
2023/05/23 07:38:45;;;;;;;;;;;;;;;20.96;47.08;99484.53;4894836;29;19933;-82
2023/05/23 07:41:13;;;;;;;;;;;;;;;20.85;47.39;99487.75;4894288;29;19982;-84
2023/05/23 07:43:40;;;;;;;;;;;;;;;20.97;47.60;99490.84;4893771;29;19927;-83
2023/05/23 07:46:07;;;;;;;;;;;;;;;21.15;47.47;99492.69;4894267;29;19931;-82
2023/05/23 07:48:35;;;;;;;;;;;;;;;21.42;46.84;99502.09;4894419;29;20541;-82
2023/05/23 07:51:02;;;;;;;;;;;;;;;21.72;47.07;99495.16;4895168;29;19942;-82
2023/05/23 07:53:30;;;;;;;;;;;;;;;21.84;46.52;99502.91;4894093;29;19939;-83
2023/05/23 07:55:57;;;;;;;;;;;;;;;22.08;46.21;99497.16;4894747;29;20363;-83
2023/05/23 07:58:27;;;;;;;;;;;;;;;22.15;45.45;99494.78;4894113;29;19932;-83
2023/05/23 08:00:54;;;;;;;;;;;;;;;22.05;45.38;99503.25;4895202;29;20006;-83
2023/05/23 08:03:41;;;;;;;;;;;;;;;21.89;45.19;99500.03;4895072;29;19963;-82
2023/05/23 08:06:14;;;;;;;;;;;;;;;22.07;45.17;99496.34;4894721;29;19927;-83
2023/05/23 08:08:42;;;;;;;;;;;;;;;22.26;45.07;99495.41;4894129;29;20038;-82
2023/05/23 08:11:09;;;;;;;;;;;;;;;22.44;44.73;99499.94;4893987;29;19927;-83
2023/05/23 08:13:42;;;;;;;;;;;;;;;22.57;44.20;99492.75;4878640;29;20314;-83
2023/05/23 08:16:36;;;;;;;;;;;;;;;22.39;44.35;99497.31;4893900;29;19927;-82
2023/05/23 08:19:15;;;;;;;;;;;;;;;22.53;44.34;99497.22;4879001;29;20430;-83
2023/05/23 08:21:43;;;;;;;;;;;;;;;22.59;43.69;99493.25;4878740;29;20445;-83
2023/05/23 08:24:11;;;;;;;;;;;;;;;22.72;43.82;99488.81;4877234;29;19927;-83
2023/05/23 08:26:42;;;;;;;;;;;;;;;22.94;43.29;99486.03;4892903;29;19928;-83
2023/05/23 08:29:11;;;;;;;;;;;;;;;23.20;43.22;99479.88;4892576;29;19927;-82
2023/05/23 08:31:39;;;;;;;;;;;;;;;23.04;43.65;99484.16;4892947;29;20575;-82
2023/05/23 08:34:07;;;;;;;;;;;;;;;23.06;43.48;99481.91;4861619;29;20030;-82
2023/05/23 08:36:38;;;;;;;;;;;;;;;23.30;42.98;99465.84;4876857;29;19947;-82
2023/05/23 08:39:11;;;;;;;;;;;;;;;23.21;43.06;99476.00;4877462;29;20352;-83
2023/05/23 08:41:55;;;;;;;;;;;;;;;23.27;43.28;99479.41;4861319;29;20336;-82
2023/05/23 08:44:22;;;;;;;;;;;;;;;23.28;43.27;99478.31;4876971;29;19927;-82
2023/05/23 08:46:57;;;;;;;;;;;;;;;23.21;43.71;99481.50;4846970;29;19934;-84
2023/05/23 08:49:44;;;;;;;;;;;;;;;23.19;43.90;99481.00;4879452;29;20398;-82
2023/05/23 08:52:12;;;;;;;;;;;;;;;23.07;44.46;99478.84;4876789;29;19947;-81
2023/05/23 08:54:42;;;;;;;;;;;;;;;22.99;44.54;99471.38;4880257;29;20426;-83
2023/05/23 08:57:11;;;;;;;;;;;;;;;22.98;44.56;99479.94;4881984;29;19927;-82
2023/05/23 08:59:43;;;;;;;;;;;;;;;22.83;44.79;99470.09;4897344;29;20307;-83
2023/05/23 09:02:10;;;;;;;;;;;;;;;22.56;45.14;99474.63;4896727;29;19938;-82
2023/05/23 09:04:37;;;;;;;;;;;;;;;22.45;45.34;99479.53;4892174;29;19935;-82
2023/05/23 09:07:18;;;;;;;;;;;;;;;22.36;46.67;99480.59;4897143;29;19927;-83
2023/05/23 09:09:47;;;;;;;;;;;;;;;22.41;47.12;99494.25;4881985;29;20394;-83
2023/05/23 09:12:16;;;;;;;;;;;;;;;22.58;46.94;99485.31;4895776;29;20302;-82
2023/05/23 09:14:45;;;;;;;;;;;;;;;22.71;46.85;99482.50;4877324;29;20030;-84
2023/05/23 09:17:19;;;;;;;;;;;;;;;22.94;46.08;99490.75;4880727;29;20422;-82
2023/05/23 09:19:46;;;;;;;;;;;;;;;23.07;45.82;99491.81;4879510;29;20413;-83
2023/05/23 09:22:36;;;;;;;;;;;;;;;23.12;45.68;99494.44;4884930;29;19963;-82
2023/05/23 09:25:11;;;;;;;;;;;;;;;23.29;45.44;99494.47;4903180;29;19978;-83
2023/05/23 09:27:41;;;;;;;;;;;;;;;23.52;45.11;99498.00;4900888;29;19928;-84
2023/05/23 09:30:11;;;;;;;;;;;;;;;23.54;45.06;99487.47;4890318;29;19986;-82
2023/05/23 09:32:38;;;;;;;;;;;;;;;23.42;44.80;99500.22;4896751;29;19969;-83
2023/05/23 09:35:06;;;;;;;;;;;;;;;23.23;45.05;99500.47;4896261;29;20021;-83
2023/05/23 09:37:39;;;;;;;;;;;;;;;22.92;46.12;99510.31;4877182;29;20030;-83
2023/05/23 09:40:09;;;;;;;;;;;;;;;22.40;48.03;99509.91;4886737;29;19927;-84
2023/05/23 09:42:42;;;;;;;;;;;;;;;22.09;48.77;99518.03;4879129;29;19927;-84
2023/05/23 09:45:09;;;;;;;;;;;;;;;21.84;49.53;99509.19;4896972;29;20472;-83
2023/05/23 09:47:36;;;;;;;;;;;;;;;21.59;50.46;99512.47;4898643;29;19934;-83
2023/05/23 09:50:03;;;;;;;;;;;;;;;21.33;51.34;99520.38;4894701;29;19982;-84
2023/05/23 09:52:39;;;;;;;;;;;;;;;21.19;51.20;99520.31;4889237;29;19934;-83
2023/05/23 09:55:07;;;;;;;;;;;;;;;20.96;52.02;99517.47;4891832;29;19927;-85
2023/05/23 09:57:36;;;;;;;;;;;;;;;20.63;53.37;99516.63;4879149;29;20413;-83
2023/05/23 10:00:12;;;;;;;;;;;;;;;20.40;54.31;99512.81;4855621;29;20382;-82
2023/05/23 10:02:39;;;;;;;;;;;;;;;20.24;55.14;99525.13;4888034;29;19928;-82
2023/05/23 10:05:07;;;;;;;;;;;;;;;19.96;56.45;99522.22;4891427;29;19934;-84
2023/05/23 10:07:33;;;;;;;;;;;;;;;19.88;56.70;99523.69;4885069;29;19927;-83
2023/05/23 10:10:02;;;;;;;;;;;;;;;19.84;57.30;99517.16;4887632;29;19962;-84
2023/05/23 10:15:24;;;;;;;;;;;;;;;19.53;58.56;99521.38;4877895;29;19967;-84
2023/05/23 10:17:51;;;;;;;;;;;;;;;19.31;59.69;99519.94;4881074;29;20012;-83
2023/05/23 10:20:20;;;;;;;;;;;;;;;18.99;60.41;99512.31;4888997;29;19934;-83
2023/05/23 10:22:47;;;;;;;;;;;;;;;18.78;62.16;99522.63;4861836;29;20027;-82
2023/05/23 10:25:15;;;;;;;;;;;;;;;18.73;62.71;99528.91;4875516;29;19946;-82
2023/05/23 10:27:42;;;;;;;;;;;;;;;18.74;63.20;99527.81;4885960;29;19927;-84
2023/05/23 10:30:10;;;;;;;;;;;;;;;18.74;63.69;99535.22;4883991;29;19937;-83
2023/05/23 10:32:37;;;;;;;;;;;;;;;18.78;63.99;99530.81;4900022;29;19927;-83
2023/05/23 10:35:25;;;;;;;;;;;;;;;18.65;65.13;99542.38;4878712;29;19927;-84
2023/05/23 10:37:55;;;;;;;;;;;;;;;18.55;65.76;99541.34;4874297;29;19928;-82
2023/05/23 10:40:28;;;;;;;;;;;;;;;18.53;66.32;99545.47;4881818;29;20022;-82
2023/05/23 10:43:13;;;;;;;;;;;;;;;18.51;66.65;99537.56;4886385;29;19970;-82
2023/05/23 10:45:44;;;;;;;;;;;;;;;18.45;67.58;99544.16;4883239;29;20058;-81
2023/05/23 10:48:41;;;;;;;;;;;;;;;18.39;67.79;99546.09;4881873;29;19927;-80
2023/05/23 10:51:08;;;;;;;;;;;;;;;18.32;68.88;99539.31;4877480;29;19972;-82
2023/05/23 10:53:37;;;;;;;;;;;;;;;18.15;69.32;99545.16;4888756;29;20444;-83
2023/05/23 10:56:05;;;;;;;;;;;;;;;17.93;70.35;99542.81;4886484;29;19931;-82
2023/05/23 10:58:33;;;;;;;;;;;;;;;17.84;70.70;99545.28;4886523;29;20438;-84
2023/05/23 11:01:01;;;;;;;;;;;;;;;17.82;71.11;99552.94;4871598;29;19928;-83
2023/05/23 11:03:35;;;;;;;;;;;;;;;17.81;71.44;99545.06;4884030;29;20022;-83
2023/05/23 11:06:03;;;;;;;;;;;;;;;17.73;71.95;99543.69;4896154;29;19958;-84
2023/05/23 11:08:36;;;;;;;;;;;;;;;17.57;72.26;99547.53;4890074;29;19974;-82
2023/05/23 11:11:13;;;;;;;;;;;;;;;17.45;72.75;99553.31;4889797;29;19983;-82
2023/05/23 11:13:52;;;;;;;;;;;;;;;17.33;73.74;99548.16;4890219;29;19943;-82
2023/05/23 11:16:26;;;;;;;;;;;;;;;17.21;74.37;99548.44;4879493;29;19931;-83
2023/05/23 11:19:11;;;;;;;;;;;;;;;17.09;75.40;99551.47;4881586;29;20348;-83
2023/05/23 11:21:38;;;;;;;;;;;;;;;17.01;75.88;99548.47;4888315;29;19935;-80
2023/05/23 11:24:05;;;;;;;;;;;;;;;16.95;76.22;99549.56;4859750;29;20546;-81
2023/05/23 11:26:32;;;;;;;;;;;;;;;16.90;76.63;99555.81;4888557;29;19939;-80
2023/05/23 11:28:59;;;;;;;;;;;;;;;16.79;77.56;99555.00;4894591;29;19955;-84
2023/05/23 11:31:26;;;;;;;;;;;;;;;16.77;78.16;99550.91;4885344;29;19934;-81
2023/05/23 11:33:54;;;;;;;;;;;;;;;16.75;78.55;99553.88;4892090;29;19928;-81
2023/05/23 11:36:21;;;;;;;;;;;;;;;16.75;78.58;99556.59;4888592;29;19927;-80
2023/05/23 11:38:52;;;;;;;;;;;;;;;16.66;78.89;99556.34;4883128;29;19983;-82
2023/05/23 11:41:18;;;;;;;;;;;;;;;16.58;79.77;99547.88;4877021;29;20030;-82
2023/05/23 11:43:50;;;;;;;;;;;;;;;16.49;80.20;99544.06;4879874;29;20395;-82
2023/05/23 11:46:17;;;;;;;;;;;;;;;16.38;80.36;99546.75;4881760;29;19927;-80
2023/05/23 11:48:45;;;;;;;;;;;;;;;16.39;80.67;99537.50;4882775;29;19928;-80
2023/05/23 11:51:12;;;;;;;;;;;;;;;16.44;80.58;99533.97;4887978;29;20445;-83
2023/05/23 11:53:39;;;;;;;;;;;;;;;16.52;80.88;99536.16;4888556;29;20903;-82
2023/05/23 11:56:07;;;;;;;;;;;;;;;16.68;80.45;99529.63;4881448;29;20022;-81
2023/05/23 11:58:34;;;;;;;;;;;;;;;16.99;80.07;99539.72;4885461;29;20421;-81
2023/05/23 12:01:02;;;;;;;;;;;;;;;17.32;79.23;99533.69;4876596;29;20396;-82
2023/05/23 12:03:30;;;;;;;;;;;;;;;17.69;78.34;99527.03;4877331;29;20050;-82
2023/05/23 12:05:58;;;;;;;;;;;;;;;17.97;77.48;99524.75;4887011;29;19939;-84
2023/05/23 12:08:24;;;;;;;;;;;;;;;18.23;76.58;99530.09;4893852;29;20047;-82
2023/05/23 12:10:52;;;;;;;;;;;;;;;18.45;75.68;99522.28;4889495;29;19927;-81
2023/05/23 12:13:19;;;;;;;;;;;;;;;18.74;75.05;99519.63;4891954;29;19995;-82
2023/05/23 12:15:46;;;;;;;;;;;;;;;18.98;74.02;99516.97;4885114;29;19962;-82
2023/05/23 12:18:15;;;;;;;;;;;;;;;19.04;73.45;99515.84;4885408;29;20027;-82
2023/05/23 12:20:42;;;;;;;;;;;;;;;18.85;73.63;99520.38;4876961;29;20306;-82
2023/05/23 12:23:16;;;;;;;;;;;;;;;18.75;73.51;99510.34;4875016;29;19938;-81
2023/05/23 12:25:43;;;;;;;;;;;;;;;18.67;73.44;99507.38;4897588;29;19928;-82
2023/05/23 12:28:12;;;;;;;;;;;;;;;18.68;73.57;99503.53;4886671;29;19935;-81
2023/05/23 12:30:42;;;;;;;;;;;;;;;18.76;73.34;99506.53;4888349;29;19932;-81
2023/05/23 12:33:10;;;;;;;;;;;;;;;18.71;73.55;99500.22;4909987;29;19931;-81
2023/05/23 12:35:41;;;;;;;;;;;;;;;18.72;72.70;99505.41;4898909;29;19969;-81
2023/05/23 12:38:08;;;;;;;;;;;;;;;18.73;72.08;99504.31;4895259;29;20399;-82
2023/05/23 12:40:35;;;;;;;;;;;;;;;18.86;71.81;99500.13;4890345;29;19927;-81
2023/05/23 12:43:02;;;;;;;;;;;;;;;19.06;71.64;99504.59;4878839;29;19928;-80
2023/05/23 12:45:32;;;;;;;;;;;;;;;19.19;71.30;99500.34;4878782;29;19935;-80
2023/05/23 12:48:00;;;;;;;;;;;;;;;19.34;70.94;99493.91;4880687;29;20351;-81
2023/05/23 12:50:27;;;;;;;;;;;;;;;19.34;70.41;99489.25;4892905;29;19934;-82
2023/05/23 12:52:55;;;;;;;;;;;;;;;19.33;70.15;99473.94;4901256;29;19927;-82
2023/05/23 12:55:22;;;;;;;;;;;;;;;19.37;69.65;99472.28;4888422;29;19928;-82
2023/05/23 12:57:49;;;;;;;;;;;;;;;19.53;69.11;99472.91;4888083;29;20330;-82
2023/05/23 13:00:16;;;;;;;;;;;;;;;19.76;68.29;99476.75;4888156;29;19927;-81